createdAt,value
2022-10-01T00:01:12.060Z,12.00
2022-10-01T00:03:39.503Z,12.00
2022-10-01T00:06:17.700Z,11.90
2022-10-01T00:08:49.326Z,11.90
2022-10-01T00:11:22.315Z,11.90
2022-10-01T00:13:49.807Z,11.90
2022-10-01T00:16:22.845Z,11.90
2022-10-01T00:18:50.701Z,11.90
2022-10-01T00:21:19.968Z,11.90
2022-10-01T00:23:47.727Z,11.90
2022-10-01T00:26:20.957Z,11.90
2022-10-01T00:28:49.361Z,11.90
2022-10-01T00:31:16.806Z,11.90
2022-10-01T00:33:44.302Z,11.90
2022-10-01T00:36:12.036Z,11.90
2022-10-01T00:38:40.335Z,11.90
2022-10-01T00:41:07.999Z,11.80
2022-10-01T00:43:42.788Z,11.80
2022-10-01T00:46:18.876Z,11.80
2022-10-01T00:49:07.323Z,11.80
2022-10-01T00:51:39.928Z,11.80
2022-10-01T00:54:10.366Z,11.80
2022-10-01T00:56:38.175Z,11.70
2022-10-01T00:59:06.312Z,11.70
2022-10-01T01:01:34.158Z,11.70
2022-10-01T01:04:01.760Z,11.70
2022-10-01T01:06:29.328Z,11.70
2022-10-01T01:08:56.730Z,11.80
2022-10-01T01:11:40.056Z,11.70
2022-10-01T01:14:42.398Z,11.70
2022-10-01T01:17:23.454Z,11.70
2022-10-01T01:20:23.952Z,11.70
2022-10-01T01:23:02.510Z,11.70
2022-10-01T01:25:39.346Z,11.70
2022-10-01T01:28:18.946Z,11.60
2022-10-01T01:30:47.566Z,11.60
2022-10-01T01:33:17.690Z,11.60
2022-10-01T01:36:15.978Z,11.60
2022-10-01T01:38:45.127Z,11.60
2022-10-01T01:41:12.391Z,11.60
2022-10-01T01:43:41.113Z,11.60
2022-10-01T01:46:08.772Z,11.50
2022-10-01T01:48:36.542Z,11.50
2022-10-01T01:51:12.460Z,11.40
2022-10-01T01:53:39.777Z,11.40
2022-10-01T01:56:07.866Z,11.30
2022-10-01T01:58:35.721Z,11.30
2022-10-01T02:01:03.322Z,11.30
2022-10-01T02:03:30.707Z,11.30
2022-10-01T02:06:19.032Z,11.20
2022-10-01T02:09:04.242Z,11.20
2022-10-01T02:11:36.962Z,11.20
2022-10-01T02:14:28.141Z,11.20
2022-10-01T02:17:06.488Z,11.20
2022-10-01T02:19:41.195Z,11.20
2022-10-01T02:22:19.943Z,11.20
2022-10-01T02:24:48.505Z,11.10
2022-10-01T02:27:30.630Z,11.10
2022-10-01T02:29:58.775Z,11.10
2022-10-01T02:32:26.561Z,11.00
2022-10-01T02:34:53.896Z,11.00
2022-10-01T02:37:23.504Z,11.00
2022-10-01T02:39:51.082Z,11.00
2022-10-01T02:42:18.570Z,11.00
2022-10-01T02:44:45.909Z,10.90
2022-10-01T02:47:34.199Z,10.90
2022-10-01T02:50:02.240Z,10.90
2022-10-01T02:52:46.089Z,10.90
2022-10-01T02:55:24.369Z,10.90
2022-10-01T02:57:51.657Z,10.90
2022-10-01T03:00:22.170Z,10.90
2022-10-01T03:02:49.844Z,10.90
2022-10-01T03:05:17.524Z,10.80
2022-10-01T03:07:44.878Z,10.80
2022-10-01T03:10:12.265Z,10.80
2022-10-01T03:12:44.131Z,10.80
2022-10-01T03:15:12.540Z,10.80
2022-10-01T03:17:39.889Z,10.80
2022-10-01T03:20:07.707Z,10.80
2022-10-01T03:22:35.022Z,10.80
2022-10-01T03:25:02.403Z,10.70
2022-10-01T03:27:30.020Z,10.80
2022-10-01T03:29:57.356Z,10.80
2022-10-01T03:32:24.643Z,10.70
2022-10-01T03:34:51.963Z,10.70
2022-10-01T03:37:19.345Z,10.70
2022-10-01T03:39:46.696Z,10.70
2022-10-01T03:42:14.871Z,10.70
2022-10-01T03:44:42.479Z,10.70
2022-10-01T03:47:10.276Z,10.70
2022-10-01T03:49:37.942Z,10.70
2022-10-01T03:52:06.806Z,10.70
2022-10-01T03:54:34.144Z,10.70
2022-10-01T03:57:01.845Z,10.70
2022-10-01T03:59:29.586Z,10.80
2022-10-01T04:01:57.008Z,10.70
2022-10-01T04:04:24.415Z,10.70
2022-10-01T04:06:51.970Z,10.70
2022-10-01T04:09:19.258Z,10.70
2022-10-01T04:11:46.544Z,10.70
2022-10-01T04:14:14.212Z,10.70
2022-10-01T04:16:41.468Z,10.70
2022-10-01T04:19:08.790Z,10.70
2022-10-01T04:21:37.384Z,10.70
2022-10-01T04:24:05.483Z,10.70
2022-10-01T04:26:32.855Z,10.70
2022-10-01T04:29:00.171Z,10.70
2022-10-01T04:31:27.620Z,10.70
2022-10-01T04:33:56.287Z,10.60
2022-10-01T04:36:24.264Z,10.60
2022-10-01T04:39:00.732Z,10.60
2022-10-01T04:41:30.986Z,10.60
2022-10-01T04:43:59.857Z,10.60
2022-10-01T04:46:29.132Z,10.60
2022-10-01T04:48:56.463Z,10.60
2022-10-01T04:51:23.840Z,10.50
2022-10-01T04:53:51.097Z,10.50
2022-10-01T04:56:18.471Z,10.50
2022-10-01T04:58:45.775Z,10.50
2022-10-01T05:01:13.148Z,10.50
2022-10-01T05:03:41.277Z,10.50
2022-10-01T05:06:08.589Z,10.50
2022-10-01T05:08:36.792Z,10.50
2022-10-01T05:11:04.109Z,10.50
2022-10-01T05:13:31.921Z,10.50
2022-10-01T05:15:59.493Z,10.50
2022-10-01T05:18:26.855Z,10.50
2022-10-01T05:20:54.171Z,10.50
2022-10-01T05:23:21.478Z,10.50
2022-10-01T05:25:48.807Z,10.50
2022-10-01T05:28:21.335Z,10.40
2022-10-01T05:30:49.714Z,10.50
2022-10-01T05:33:17.146Z,10.40
2022-10-01T05:35:44.601Z,10.40
2022-10-01T05:38:11.911Z,10.40
2022-10-01T05:40:39.203Z,10.40
2022-10-01T05:43:06.516Z,10.40
2022-10-01T05:45:34.064Z,10.50
2022-10-01T05:48:03.009Z,10.50
2022-10-01T05:50:33.775Z,10.50
2022-10-01T05:53:01.412Z,10.50
2022-10-01T05:55:33.227Z,10.50
2022-10-01T05:58:01.418Z,10.60
2022-10-01T06:00:29.154Z,10.60
2022-10-01T06:02:57.929Z,10.60
2022-10-01T06:05:25.613Z,10.60
2022-10-01T06:07:53.568Z,10.70
2022-10-01T06:10:21.471Z,10.70
2022-10-01T06:12:48.907Z,10.70
2022-10-01T06:15:16.651Z,10.70
2022-10-01T06:17:45.186Z,10.70
2022-10-01T06:20:17.204Z,10.70
2022-10-01T06:22:44.839Z,10.70
2022-10-01T06:25:12.738Z,10.80
2022-10-01T06:27:40.208Z,10.80
2022-10-01T06:30:08.125Z,10.80
2022-10-01T06:32:35.540Z,10.80
2022-10-01T06:35:03.552Z,10.90
2022-10-01T06:37:30.849Z,10.90
2022-10-01T06:39:58.163Z,11.00
2022-10-01T06:42:25.535Z,11.00
2022-10-01T06:44:52.922Z,11.00
2022-10-01T06:47:20.239Z,11.10
2022-10-01T06:49:47.884Z,11.10
2022-10-01T06:52:35.510Z,11.10
2022-10-01T06:55:03.170Z,11.20
2022-10-01T06:57:30.968Z,11.20
2022-10-01T06:59:58.440Z,11.20
2022-10-01T07:02:28.937Z,11.30
2022-10-01T07:04:58.946Z,11.30
2022-10-01T07:07:31.082Z,11.30
2022-10-01T07:10:02.311Z,11.40
2022-10-01T07:12:29.623Z,11.40
2022-10-01T07:14:56.951Z,11.50
2022-10-01T07:17:24.270Z,11.50
2022-10-01T07:19:51.583Z,11.60
2022-10-01T07:22:19.460Z,11.70
2022-10-01T07:24:46.847Z,11.70
2022-10-01T07:27:14.511Z,11.80
2022-10-01T07:29:42.044Z,11.80
2022-10-01T07:32:10.541Z,11.90
2022-10-01T07:34:40.354Z,11.90
2022-10-01T07:37:08.459Z,11.90
2022-10-01T07:39:36.525Z,12.00
2022-10-01T07:42:04.270Z,12.00
2022-10-01T07:44:31.625Z,12.00
2022-10-01T07:46:59.114Z,12.10
2022-10-01T07:49:26.510Z,12.10
2022-10-01T07:51:54.617Z,12.10
2022-10-01T07:54:22.301Z,12.10
2022-10-01T07:56:52.805Z,12.10
2022-10-01T07:59:20.178Z,12.20
2022-10-01T08:01:51.867Z,12.20
2022-10-01T08:04:40.789Z,12.30
2022-10-01T08:07:08.362Z,12.30
2022-10-01T08:09:35.888Z,12.40
2022-10-01T08:12:03.200Z,12.50
2022-10-01T08:14:30.641Z,12.50
2022-10-01T08:16:58.161Z,12.50
2022-10-01T08:19:26.029Z,12.60
2022-10-01T08:21:53.312Z,12.60
2022-10-01T08:24:20.803Z,12.60
2022-10-01T08:26:53.437Z,12.70
2022-10-01T08:29:21.136Z,12.70
2022-10-01T08:31:49.127Z,12.80
2022-10-01T08:34:16.673Z,12.80
2022-10-01T08:36:44.094Z,12.90
2022-10-01T08:39:13.491Z,12.90
2022-10-01T08:42:07.836Z,12.80
2022-10-01T08:44:45.575Z,12.90
2022-10-01T08:47:55.959Z,12.90
2022-10-01T08:50:35.230Z,12.90
2022-10-01T08:53:04.452Z,12.90
2022-10-01T08:55:36.366Z,13.00
2022-10-01T08:58:06.456Z,13.00
2022-10-01T09:00:36.015Z,13.10
2022-10-01T09:03:07.278Z,13.00
2022-10-01T09:05:51.632Z,13.00
2022-10-01T09:08:25.004Z,13.00
2022-10-01T09:11:04.321Z,13.10
2022-10-01T09:13:41.706Z,13.10
2022-10-01T09:16:30.203Z,13.10
2022-10-01T09:19:23.045Z,13.10
2022-10-01T09:21:57.969Z,13.20
2022-10-01T09:24:43.231Z,13.20
2022-10-01T09:27:18.458Z,13.20
2022-10-01T09:29:51.584Z,13.30
2022-10-01T09:32:22.270Z,13.30
2022-10-01T09:34:49.599Z,13.40
2022-10-01T09:37:42.509Z,13.50
2022-10-01T09:40:49.300Z,13.50
2022-10-01T09:43:19.971Z,13.50
2022-10-01T09:45:47.494Z,13.50
2022-10-01T09:48:20.867Z,13.50
2022-10-01T09:50:55.713Z,13.50
2022-10-01T09:53:26.476Z,13.50
2022-10-01T09:55:56.503Z,13.40
2022-10-01T09:58:24.782Z,13.40
2022-10-01T10:00:53.627Z,13.40
2022-10-01T10:03:24.447Z,13.40
2022-10-01T10:05:51.892Z,13.40
2022-10-01T10:08:38.250Z,13.30
2022-10-01T10:11:07.892Z,13.30
2022-10-01T10:13:39.207Z,13.30
2022-10-01T10:16:26.366Z,13.30
2022-10-01T10:18:56.692Z,13.30
2022-10-01T10:21:26.518Z,13.30
2022-10-01T10:23:59.006Z,13.30
2022-10-01T10:26:35.562Z,13.20
2022-10-01T10:29:03.538Z,13.20
2022-10-01T10:31:51.615Z,13.20
2022-10-01T10:34:26.131Z,13.20
2022-10-01T10:36:58.132Z,13.10
2022-10-01T10:39:30.323Z,13.00
2022-10-01T10:41:58.577Z,13.00
2022-10-01T10:44:30.269Z,12.90
2022-10-01T10:47:00.491Z,12.90
2022-10-01T10:49:30.089Z,12.90
2022-10-01T10:51:58.475Z,12.90
2022-10-01T10:54:29.287Z,12.80
2022-10-01T10:57:21.346Z,12.70
2022-10-01T10:59:58.612Z,12.90
2022-10-01T11:02:27.545Z,13.10
2022-10-01T11:04:55.049Z,13.30
2022-10-01T11:07:23.456Z,13.50
2022-10-01T11:09:56.730Z,13.50
2022-10-01T11:12:42.599Z,13.40
2022-10-01T11:15:18.788Z,13.20
2022-10-01T11:18:10.630Z,13.10
2022-10-01T11:21:05.683Z,12.90
2022-10-01T11:23:37.594Z,12.80
2022-10-01T11:26:11.048Z,12.80
2022-10-01T11:28:46.094Z,12.60
2022-10-01T11:31:23.680Z,12.60
2022-10-01T11:34:18.959Z,12.60
2022-10-01T11:36:54.693Z,12.50
2022-10-01T11:39:23.571Z,12.40
2022-10-01T11:41:53.324Z,12.40
2022-10-01T11:44:43.054Z,12.30
2022-10-01T11:47:14.300Z,12.30
2022-10-01T11:49:47.874Z,12.20
2022-10-01T11:52:27.817Z,12.20
2022-10-01T11:54:56.661Z,12.20
2022-10-01T11:57:42.823Z,12.10
2022-10-01T12:00:11.398Z,12.10
2022-10-01T12:02:49.882Z,12.10
2022-10-01T12:05:19.728Z,12.10
2022-10-01T12:08:02.394Z,12.10
2022-10-01T12:10:42.310Z,12.00
2022-10-01T12:13:15.977Z,12.00
2022-10-01T12:15:58.833Z,12.00
2022-10-01T12:18:39.323Z,11.90
2022-10-01T12:21:19.506Z,11.90
2022-10-01T12:24:12.948Z,11.90
2022-10-01T12:26:58.977Z,11.90
2022-10-01T12:29:51.947Z,11.90
2022-10-01T12:32:54.419Z,11.90
2022-10-01T12:35:28.818Z,11.90
2022-10-01T12:38:08.247Z,11.90
2022-10-01T12:41:14.799Z,11.90
2022-10-01T12:43:54.137Z,11.90
2022-10-01T12:46:41.531Z,11.90
2022-10-01T12:49:12.190Z,11.90
2022-10-01T12:51:52.440Z,11.80
2022-10-01T12:54:53.142Z,11.80
2022-10-01T12:57:33.130Z,11.90
2022-10-01T13:00:11.373Z,11.90
2022-10-01T13:03:12.209Z,11.90
2022-10-01T13:05:42.276Z,12.10
2022-10-01T13:08:24.630Z,12.80
2022-10-01T13:11:10.796Z,13.50
2022-10-01T13:13:38.626Z,14.20
2022-10-01T13:16:27.085Z,14.90
2022-10-01T13:19:14.406Z,15.40
2022-10-01T13:22:10.902Z,15.80
2022-10-01T13:25:16.698Z,16.10
2022-10-01T13:27:47.596Z,16.30
2022-10-01T13:30:19.157Z,16.40
2022-10-01T13:32:58.456Z,16.50
2022-10-01T13:35:35.556Z,16.60
2022-10-01T13:38:38.734Z,16.60
2022-10-01T13:41:22.912Z,16.70
2022-10-01T13:43:59.132Z,16.70
2022-10-01T13:46:31.635Z,16.70
2022-10-01T13:49:07.417Z,16.70
2022-10-01T13:51:36.093Z,16.70
2022-10-01T13:54:07.319Z,16.70
2022-10-01T13:56:37.367Z,16.80
2022-10-01T13:59:25.274Z,16.50
2022-10-01T14:01:52.805Z,15.90
2022-10-01T14:04:23.645Z,15.30
2022-10-01T14:06:57.102Z,14.80
2022-10-01T14:09:37.749Z,14.40
2022-10-01T14:12:26.076Z,14.00
2022-10-01T14:15:14.856Z,13.80
2022-10-01T14:17:43.335Z,13.50
2022-10-01T14:20:21.561Z,13.40
2022-10-01T14:23:13.309Z,13.30
2022-10-01T14:25:58.848Z,13.20
2022-10-01T14:28:35.286Z,13.10
2022-10-01T14:31:05.868Z,13.00
2022-10-01T14:33:36.260Z,13.00
2022-10-01T14:36:09.420Z,12.90
2022-10-01T14:38:36.735Z,12.90
2022-10-01T14:41:04.219Z,12.90
2022-10-01T14:43:32.104Z,12.80
2022-10-01T14:46:04.360Z,12.80
2022-10-01T14:48:33.484Z,12.80
2022-10-01T14:51:02.531Z,12.80
2022-10-01T14:53:35.016Z,12.80
2022-10-01T14:56:12.827Z,12.80
2022-10-01T14:58:44.881Z,12.80
2022-10-01T15:01:23.057Z,12.80
2022-10-01T15:03:51.662Z,12.80
2022-10-01T15:06:21.404Z,13.10
2022-10-01T15:08:50.671Z,13.80
2022-10-01T15:11:27.544Z,14.50
2022-10-01T15:14:08.316Z,14.90
2022-10-01T15:16:36.325Z,15.20
2022-10-01T15:19:09.888Z,15.50
2022-10-01T15:21:47.988Z,15.80
2022-10-01T15:24:42.640Z,16.20
2022-10-01T15:27:11.289Z,16.40
2022-10-01T15:29:40.116Z,16.60
2022-10-01T15:32:07.754Z,16.60
2022-10-01T15:34:35.155Z,16.70
2022-10-01T15:37:02.502Z,16.70
2022-10-01T15:39:35.592Z,16.30
2022-10-01T15:42:25.687Z,16.20
2022-10-01T15:45:08.351Z,16.30
2022-10-01T15:47:38.747Z,16.30
2022-10-01T15:50:11.812Z,16.30
2022-10-01T15:52:49.652Z,16.40
2022-10-01T15:55:29.726Z,16.40
2022-10-01T15:58:15.344Z,16.40
2022-10-01T16:00:57.764Z,16.40
2022-10-01T16:03:31.863Z,16.60
2022-10-01T16:06:01.805Z,16.80
2022-10-01T16:08:34.510Z,16.70
2022-10-01T16:11:32.118Z,16.30
2022-10-01T16:14:36.678Z,15.70
2022-10-01T16:17:19.653Z,15.20
2022-10-01T16:19:48.177Z,14.70
2022-10-01T16:22:19.242Z,14.40
2022-10-01T16:25:07.233Z,14.10
2022-10-01T16:27:45.160Z,13.90
2022-10-01T16:30:19.556Z,13.70
2022-10-01T16:32:46.966Z,13.50
2022-10-01T16:35:20.997Z,13.40
2022-10-01T16:37:50.034Z,13.30
2022-10-01T16:40:18.227Z,13.20
2022-10-01T16:42:45.938Z,13.20
2022-10-01T16:45:18.422Z,13.10
2022-10-01T16:47:45.902Z,13.10
2022-10-01T16:50:14.972Z,13.10
2022-10-01T16:52:42.251Z,13.10
2022-10-01T16:55:22.802Z,13.10
2022-10-01T16:57:50.817Z,13.00
2022-10-01T17:00:19.538Z,12.90
2022-10-01T17:02:47.016Z,12.90
2022-10-01T17:05:29.071Z,12.90
2022-10-01T17:08:01.119Z,12.90
2022-10-01T17:10:31.051Z,12.90
2022-10-01T17:12:59.533Z,12.90
2022-10-01T17:15:27.555Z,12.90
2022-10-01T17:17:55.314Z,12.90
2022-10-01T17:20:23.292Z,12.90
2022-10-01T17:22:50.844Z,12.90
2022-10-01T17:25:20.019Z,12.90
2022-10-01T17:27:47.695Z,12.90
2022-10-01T17:30:15.210Z,12.90
2022-10-01T17:32:46.654Z,12.90
2022-10-01T17:35:14.661Z,12.90
2022-10-01T17:37:42.338Z,12.90
2022-10-01T17:40:10.224Z,12.90
2022-10-01T17:42:37.684Z,12.80
2022-10-01T17:45:07.922Z,12.90
2022-10-01T17:47:35.384Z,12.90
2022-10-01T17:50:03.088Z,12.90
2022-10-01T17:52:32.141Z,12.90
2022-10-01T17:54:59.484Z,12.90
2022-10-01T17:57:26.841Z,12.90
2022-10-01T17:59:54.203Z,12.90
2022-10-01T18:02:40.926Z,12.90
2022-10-01T18:05:09.655Z,12.90
2022-10-01T18:07:37.296Z,12.90
2022-10-01T18:10:05.652Z,12.90
2022-10-01T18:12:33.823Z,12.90
2022-10-01T18:15:01.522Z,13.00
2022-10-01T18:17:29.224Z,12.90
2022-10-01T18:19:57.202Z,13.00
2022-10-01T18:22:24.635Z,12.90
2022-10-01T18:24:53.232Z,13.00
2022-10-01T18:27:20.624Z,13.00
2022-10-01T18:29:48.019Z,13.00
2022-10-01T18:32:23.615Z,13.00
2022-10-01T18:35:01.169Z,12.90
2022-10-01T18:37:49.405Z,12.90
2022-10-01T18:40:32.600Z,12.90
2022-10-01T18:43:11.267Z,12.90
2022-10-01T18:45:48.515Z,12.90
2022-10-01T18:48:53.116Z,13.00
2022-10-01T18:51:31.003Z,13.00
2022-10-01T18:54:10.227Z,13.00
2022-10-01T18:56:38.912Z,13.00
2022-10-01T18:59:15.313Z,13.00
2022-10-01T19:01:57.329Z,13.00
2022-10-01T19:04:31.384Z,13.00
2022-10-01T19:06:58.887Z,13.00
2022-10-01T19:09:29.228Z,13.00
2022-10-01T19:12:14.722Z,13.00
2022-10-01T19:14:51.032Z,13.00
2022-10-01T19:17:33.239Z,13.00
2022-10-01T19:20:28.547Z,13.00
2022-10-01T19:23:04.908Z,13.00
2022-10-01T19:25:53.575Z,13.00
2022-10-01T19:28:47.018Z,13.00
2022-10-01T19:31:35.370Z,13.00
2022-10-01T19:34:28.556Z,13.00
2022-10-01T19:37:06.863Z,13.10
2022-10-01T19:39:37.715Z,13.10
2022-10-01T19:42:08.368Z,13.10
2022-10-01T19:44:56.355Z,13.10
2022-10-01T19:47:44.013Z,13.10
2022-10-01T19:50:30.133Z,13.10
2022-10-01T19:52:58.158Z,13.10
2022-10-01T19:55:25.696Z,13.10
2022-10-01T19:57:53.096Z,13.10
2022-10-01T20:00:21.749Z,13.10
2022-10-01T20:02:54.628Z,13.10
2022-10-01T20:05:29.445Z,13.10
2022-10-01T20:08:05.452Z,13.10
2022-10-01T20:11:20.582Z,13.20
2022-10-01T20:13:58.064Z,13.10
2022-10-01T20:16:36.263Z,13.10
2022-10-01T20:19:22.373Z,13.10
2022-10-01T20:21:49.680Z,13.10
2022-10-01T20:24:44.680Z,13.10
2022-10-01T20:27:21.035Z,13.20
2022-10-01T20:29:53.218Z,13.20
2022-10-01T20:32:27.367Z,13.10
2022-10-01T20:35:01.646Z,13.10
2022-10-01T20:37:38.280Z,13.10
2022-10-01T20:40:11.172Z,13.10
2022-10-01T20:42:39.782Z,13.10
2022-10-01T20:45:13.641Z,13.10
2022-10-01T20:47:44.327Z,13.10
2022-10-01T20:50:32.870Z,13.00
2022-10-01T20:53:53.201Z,13.00
2022-10-01T20:56:38.933Z,13.00
2022-10-01T20:59:19.410Z,13.00
2022-10-01T21:02:21.768Z,13.00
2022-10-01T21:04:53.014Z,12.90
2022-10-01T21:07:44.884Z,12.90
2022-10-01T21:10:36.751Z,12.90
2022-10-01T21:13:11.782Z,12.90
2022-10-01T21:15:52.572Z,12.90
2022-10-01T21:18:31.468Z,12.90
2022-10-01T21:21:12.557Z,12.90
2022-10-01T21:23:51.770Z,12.80
2022-10-01T21:26:24.505Z,12.90
2022-10-01T21:29:10.706Z,12.90
2022-10-01T21:32:06.425Z,12.90
2022-10-01T21:35:01.132Z,12.90
2022-10-01T21:37:36.638Z,12.90
2022-10-01T21:40:25.252Z,12.90
2022-10-01T21:42:55.117Z,12.90
2022-10-01T21:45:54.321Z,12.90
2022-10-01T21:48:30.672Z,12.90
2022-10-01T21:51:05.157Z,12.90
2022-10-01T21:53:57.499Z,12.90
2022-10-01T21:56:35.860Z,12.80
2022-10-01T21:59:17.092Z,12.90
2022-10-01T22:01:58.822Z,12.90
2022-10-01T22:04:41.576Z,12.90
2022-10-01T22:07:11.908Z,12.90
2022-10-01T22:09:45.100Z,12.90
2022-10-01T22:12:12.441Z,12.90
2022-10-01T22:14:40.918Z,12.90
2022-10-01T22:17:12.632Z,12.90
2022-10-01T22:19:41.980Z,12.90
2022-10-01T22:22:16.680Z,12.90
2022-10-01T22:24:49.070Z,12.90
2022-10-01T22:27:32.118Z,12.90
2022-10-01T22:30:11.423Z,12.90
2022-10-01T22:32:44.854Z,12.90
2022-10-01T22:35:43.495Z,12.90
2022-10-01T22:38:36.487Z,12.90
2022-10-01T22:41:14.381Z,12.90
2022-10-01T22:43:43.045Z,12.90
2022-10-01T22:46:28.776Z,12.90
2022-10-01T22:49:16.558Z,12.90
2022-10-01T22:52:05.664Z,12.90
2022-10-01T22:54:48.475Z,13.00
2022-10-01T22:57:22.977Z,12.90
2022-10-01T23:00:08.687Z,13.00
2022-10-01T23:02:51.232Z,13.00
2022-10-01T23:05:24.615Z,13.00
2022-10-01T23:08:26.677Z,13.10
2022-10-01T23:11:16.184Z,13.00
2022-10-01T23:13:59.408Z,13.00
2022-10-01T23:16:52.182Z,13.00
2022-10-01T23:19:25.472Z,13.00
2022-10-01T23:22:07.990Z,13.00
2022-10-01T23:24:53.740Z,13.00
2022-10-01T23:27:30.946Z,13.00
2022-10-01T23:30:11.759Z,13.00
2022-10-01T23:33:06.671Z,13.00
2022-10-01T23:36:08.555Z,13.00
2022-10-01T23:39:07.855Z,13.00
2022-10-01T23:41:48.226Z,13.00
2022-10-01T23:44:37.630Z,13.00
2022-10-01T23:47:09.236Z,13.10
2022-10-01T23:49:37.368Z,13.00
2022-10-01T23:52:24.693Z,13.10
2022-10-01T23:54:55.179Z,13.10
2022-10-01T23:57:34.246Z,13.10
